sensor_id;sensor_type;location;lat;lon;timestamp;pressure;altitude;pressure_sealevel;temperature;humidity
61906;BME280;47863;55.766;37.672;2023-05-21T00:01:37;100555.81;;;12.22;62.36
61906;BME280;47863;55.766;37.672;2023-05-21T00:04:04;100538.78;;;12.13;62.92
61906;BME280;47863;55.766;37.672;2023-05-21T00:06:33;100534.56;;;12.10;62.66
61906;BME280;47863;55.766;37.672;2023-05-21T00:09:04;100551.66;;;12.27;63.47
61906;BME280;47863;55.766;37.672;2023-05-21T00:11:31;100552.50;;;12.28;62.87
61906;BME280;47863;55.766;37.672;2023-05-21T00:13:57;100552.00;;;12.24;62.80
61906;BME280;47863;55.766;37.672;2023-05-21T00:16:23;100553.66;;;12.25;62.85
61906;BME280;47863;55.766;37.672;2023-05-21T00:18:49;100549.31;;;12.24;62.96
61906;BME280;47863;55.766;37.672;2023-05-21T00:21:16;100537.88;;;12.22;63.17
61906;BME280;47863;55.766;37.672;2023-05-21T00:23:42;100549.13;;;12.26;63.19
61906;BME280;47863;55.766;37.672;2023-05-21T00:26:08;100527.56;;;12.18;63.38
61906;BME280;47863;55.766;37.672;2023-05-21T00:28:33;100519.97;;;12.13;63.56
61906;BME280;47863;55.766;37.672;2023-05-21T00:30:59;100535.34;;;12.21;63.38
61906;BME280;47863;55.766;37.672;2023-05-21T00:33:25;100513.53;;;12.06;63.45
61906;BME280;47863;55.766;37.672;2023-05-21T00:35:54;100539.69;;;12.22;63.56
61906;BME280;47863;55.766;37.672;2023-05-21T00:38:19;100537.88;;;12.22;63.53
61906;BME280;47863;55.766;37.672;2023-05-21T00:40:46;100534.47;;;12.20;63.54
61906;BME280;47863;55.766;37.672;2023-05-21T00:43:12;100524.88;;;12.18;63.57
61906;BME280;47863;55.766;37.672;2023-05-21T00:45:40;100530.25;;;12.18;63.91
61906;BME280;47863;55.766;37.672;2023-05-21T00:48:08;100515.91;;;12.09;64.09
61906;BME280;47863;55.766;37.672;2023-05-21T00:50:34;100539.00;;;12.20;64.12
61906;BME280;47863;55.766;37.672;2023-05-21T00:53:00;100542.38;;;12.22;64.04
61906;BME280;47863;55.766;37.672;2023-05-21T00:55:26;100519.28;;;12.11;64.24
61906;BME280;47863;55.766;37.672;2023-05-21T00:57:52;100517.44;;;12.12;64.31
61906;BME280;47863;55.766;37.672;2023-05-21T01:00:18;100539.84;;;12.20;64.21
61906;BME280;47863;55.766;37.672;2023-05-21T01:02:44;100537.63;;;12.16;64.34
61906;BME280;47863;55.766;37.672;2023-05-21T01:05:10;100531.88;;;12.10;64.40
61906;BME280;47863;55.766;37.672;2023-05-21T01:07:38;100541.31;;;12.15;64.29
61906;BME280;47863;55.766;37.672;2023-05-21T01:10:07;100541.31;;;12.15;64.28
61906;BME280;47863;55.766;37.672;2023-05-21T01:12:34;100535.41;;;12.11;64.47
61906;BME280;47863;55.766;37.672;2023-05-21T01:15:01;100536.94;;;12.14;64.20
61906;BME280;47863;55.766;37.672;2023-05-21T01:17:33;100516.53;;;12.03;63.88
61906;BME280;47863;55.766;37.672;2023-05-21T01:20:00;100536.09;;;12.13;64.16
61906;BME280;47863;55.766;37.672;2023-05-21T01:22:28;100519.38;;;12.01;64.48
61906;BME280;47863;55.766;37.672;2023-05-21T01:24:56;100527.03;;;12.14;64.42
61906;BME280;47863;55.766;37.672;2023-05-21T01:27:22;100507.09;;;11.99;64.43
61906;BME280;47863;55.766;37.672;2023-05-21T01:29:47;100540.72;;;12.21;64.66
61906;BME280;47863;55.766;37.672;2023-05-21T01:32:26;100538.72;;;12.23;65.04
61906;BME280;47863;55.766;37.672;2023-05-21T01:37:45;100550.69;;;12.28;65.72
61906;BME280;47863;55.766;37.672;2023-05-21T01:42:44;100543.13;;;12.32;65.52
61906;BME280;47863;55.766;37.672;2023-05-21T01:45:13;100550.22;;;12.33;66.10
61906;BME280;47863;55.766;37.672;2023-05-21T01:47:40;100528.66;;;12.25;65.57
61906;BME280;47863;55.766;37.672;2023-05-21T01:50:09;100533.25;;;12.33;65.27
61906;BME280;47863;55.766;37.672;2023-05-21T01:52:35;100533.25;;;12.33;65.11
61906;BME280;47863;55.766;37.672;2023-05-21T01:55:02;100506.47;;;12.23;65.50
61906;BME280;47863;55.766;37.672;2023-05-21T01:57:28;100504.47;;;12.25;65.48
61906;BME280;47863;55.766;37.672;2023-05-21T01:59:54;100523.97;;;12.45;65.46
61906;BME280;47863;55.766;37.672;2023-05-21T02:02:22;100522.44;;;12.42;65.26
61906;BME280;47863;55.766;37.672;2023-05-21T02:04:47;100518.44;;;12.46;66.00
61906;BME280;47863;55.766;37.672;2023-05-21T02:07:14;100515.91;;;12.45;65.81
61906;BME280;47863;55.766;37.672;2023-05-21T02:09:40;100520.78;;;12.49;65.80
61906;BME280;47863;55.766;37.672;2023-05-21T02:12:06;100537.38;;;12.63;65.95
61906;BME280;47863;55.766;37.672;2023-05-21T02:14:32;100506.66;;;12.47;66.02
61906;BME280;47863;55.766;37.672;2023-05-21T02:16:59;100531.31;;;12.61;66.08
61906;BME280;47863;55.766;37.672;2023-05-21T02:19:25;100494.19;;;12.38;66.00
61906;BME280;47863;55.766;37.672;2023-05-21T02:21:51;100532.69;;;12.65;66.17
61906;BME280;47863;55.766;37.672;2023-05-21T02:24:17;100522.00;;;12.55;66.26
61906;BME280;47863;55.766;37.672;2023-05-21T02:26:43;100537.22;;;12.64;66.01
61906;BME280;47863;55.766;37.672;2023-05-21T02:29:08;100541.91;;;12.62;67.00
61906;BME280;47863;55.766;37.672;2023-05-21T02:31:34;100537.50;;;12.61;66.73
61906;BME280;47863;55.766;37.672;2023-05-21T02:34:00;100542.59;;;12.64;66.72
61906;BME280;47863;55.766;37.672;2023-05-21T02:36:25;100518.16;;;12.58;66.82
61906;BME280;47863;55.766;37.672;2023-05-21T02:38:53;100533.91;;;12.70;66.59
61906;BME280;47863;55.766;37.672;2023-05-21T02:41:20;100545.34;;;12.73;66.71
61906;BME280;47863;55.766;37.672;2023-05-21T02:43:45;100540.50;;;12.76;66.62
61906;BME280;47863;55.766;37.672;2023-05-21T02:46:11;100525.00;;;12.70;66.64
61906;BME280;47863;55.766;37.672;2023-05-21T02:48:37;100518.47;;;12.73;66.52
61906;BME280;47863;55.766;37.672;2023-05-21T02:51:02;100537.84;;;12.84;67.15
61906;BME280;47863;55.766;37.672;2023-05-21T02:53:28;100543.91;;;12.86;66.68
61906;BME280;47863;55.766;37.672;2023-05-21T02:55:53;100514.88;;;12.64;66.80
61906;BME280;47863;55.766;37.672;2023-05-21T02:58:20;100526.03;;;12.77;67.00
61906;BME280;47863;55.766;37.672;2023-05-21T03:00:50;100540.44;;;12.94;67.18
61906;BME280;47863;55.766;37.672;2023-05-21T03:03:16;100548.03;;;12.99;67.04
61906;BME280;47863;55.766;37.672;2023-05-21T03:05:42;100522.78;;;12.92;67.29
61906;BME280;47863;55.766;37.672;2023-05-21T03:08:07;100545.56;;;13.05;67.20
61906;BME280;47863;55.766;37.672;2023-05-21T03:10:33;100546.25;;;13.07;67.38
61906;BME280;47863;55.766;37.672;2023-05-21T03:12:59;100545.22;;;13.08;67.08
61906;BME280;47863;55.766;37.672;2023-05-21T03:15:25;100546.94;;;13.09;66.87
61906;BME280;47863;55.766;37.672;2023-05-21T03:17:51;100545.09;;;13.10;67.21
61906;BME280;47863;55.766;37.672;2023-05-21T03:20:18;100517.41;;;12.92;67.05
61906;BME280;47863;55.766;37.672;2023-05-21T03:22:44;100541.88;;;13.06;67.19
61906;BME280;47863;55.766;37.672;2023-05-21T03:25:11;100553.84;;;13.12;67.36
61906;BME280;47863;55.766;37.672;2023-05-21T03:27:37;100550.84;;;13.15;67.40
61906;BME280;47863;55.766;37.672;2023-05-21T03:30:04;100547.13;;;13.16;67.02
61906;BME280;47863;55.766;37.672;2023-05-21T03:32:31;100538.91;;;13.18;67.27
61906;BME280;47863;55.766;37.672;2023-05-21T03:35:03;100551.03;;;13.22;67.32
61906;BME280;47863;55.766;37.672;2023-05-21T03:37:29;100549.03;;;13.24;67.18
61906;BME280;47863;55.766;37.672;2023-05-21T03:39:55;100543.28;;;13.19;67.27
61906;BME280;47863;55.766;37.672;2023-05-21T03:42:21;100554.41;;;13.24;67.33
61906;BME280;47863;55.766;37.672;2023-05-21T03:44:46;100555.59;;;13.21;67.40
61906;BME280;47863;55.766;37.672;2023-05-21T03:47:12;100555.19;;;13.16;67.59
61906;BME280;47863;55.766;37.672;2023-05-21T03:49:37;100551.81;;;13.14;67.45
61906;BME280;47863;55.766;37.672;2023-05-21T03:52:03;100553.53;;;13.15;67.23
61906;BME280;47863;55.766;37.672;2023-05-21T03:54:29;100527.44;;;13.07;67.17
61906;BME280;47863;55.766;37.672;2023-05-21T03:56:55;100539.78;;;13.26;67.39
61906;BME280;47863;55.766;37.672;2023-05-21T03:59:20;100553.97;;;13.37;67.14
61906;BME280;47863;55.766;37.672;2023-05-21T04:01:46;100550.47;;;13.36;66.79
61906;BME280;47863;55.766;37.672;2023-05-21T04:04:11;100535.09;;;13.28;66.96
61906;BME280;47863;55.766;37.672;2023-05-21T04:06:37;100545.56;;;13.32;66.93
61906;BME280;47863;55.766;37.672;2023-05-21T04:09:03;100534.16;;;13.12;66.84
61906;BME280;47863;55.766;37.672;2023-05-21T04:11:29;100551.81;;;13.14;66.97
61906;BME280;47863;55.766;37.672;2023-05-21T04:13:55;100555.53;;;13.13;66.86
61906;BME280;47863;55.766;37.672;2023-05-21T04:16:21;100548.06;;;13.07;66.63
61906;BME280;47863;55.766;37.672;2023-05-21T04:18:47;100556.47;;;13.04;67.07
61906;BME280;47863;55.766;37.672;2023-05-21T04:21:12;100558.53;;;13.10;67.35
61906;BME280;47863;55.766;37.672;2023-05-21T04:23:38;100536.81;;;13.03;67.71
61906;BME280;47863;55.766;37.672;2023-05-21T04:26:04;100556.41;;;13.22;68.02
61906;BME280;47863;55.766;37.672;2023-05-21T04:28:30;100533.31;;;13.11;67.70
61906;BME280;47863;55.766;37.672;2023-05-21T04:30:55;100550.81;;;13.33;67.46
61906;BME280;47863;55.766;37.672;2023-05-21T04:33:21;100549.28;;;13.39;67.31
61906;BME280;47863;55.766;37.672;2023-05-21T04:35:49;100551.00;;;13.40;67.35
61906;BME280;47863;55.766;37.672;2023-05-21T04:38:16;100556.53;;;13.38;67.47
61906;BME280;47863;55.766;37.672;2023-05-21T04:40:49;100558.69;;;13.35;67.43
61906;BME280;47863;55.766;37.672;2023-05-21T04:43:18;100549.28;;;13.39;67.44
61906;BME280;47863;55.766;37.672;2023-05-21T04:45:50;100545.75;;;13.38;67.36
61906;BME280;47863;55.766;37.672;2023-05-21T04:48:16;100552.69;;;13.41;67.52
61906;BME280;47863;55.766;37.672;2023-05-21T04:50:42;100541.03;;;13.32;67.31
61906;BME280;47863;55.766;37.672;2023-05-21T04:53:08;100545.09;;;13.36;67.68
61906;BME280;47863;55.766;37.672;2023-05-21T04:55:34;100543.06;;;13.38;67.49
61906;BME280;47863;55.766;37.672;2023-05-21T04:58:05;100555.94;;;13.53;67.36
61906;BME280;47863;55.766;37.672;2023-05-21T05:00:32;100551.56;;;13.60;67.63
61906;BME280;47863;55.766;37.672;2023-05-21T05:02:58;100562.19;;;13.61;67.24
61906;BME280;47863;55.766;37.672;2023-05-21T05:05:24;100564.38;;;13.66;67.02
61906;BME280;47863;55.766;37.672;2023-05-21T05:07:49;100568.94;;;13.65;67.52
61906;BME280;47863;55.766;37.672;2023-05-21T05:10:15;100565.59;;;13.72;67.22
61906;BME280;47863;55.766;37.672;2023-05-21T05:12:41;100559.53;;;13.78;67.06
61906;BME280;47863;55.766;37.672;2023-05-21T05:15:07;100555.88;;;13.87;66.80
61906;BME280;47863;55.766;37.672;2023-05-21T05:17:33;100565.84;;;14.03;66.67
61906;BME280;47863;55.766;37.672;2023-05-21T05:19:59;100554.09;;;14.12;66.31
61906;BME280;47863;55.766;37.672;2023-05-21T05:22:25;100571.28;;;14.19;66.22
61906;BME280;47863;55.766;37.672;2023-05-21T05:24:51;100560.66;;;14.18;65.90
61906;BME280;47863;55.766;37.672;2023-05-21T05:27:16;100555.97;;;14.28;65.88
61906;BME280;47863;55.766;37.672;2023-05-21T05:29:43;100567.44;;;14.38;65.54
61906;BME280;47863;55.766;37.672;2023-05-21T05:32:09;100569.09;;;14.39;65.41
61906;BME280;47863;55.766;37.672;2023-05-21T05:34:36;100564.59;;;14.48;65.26
61906;BME280;47863;55.766;37.672;2023-05-21T05:37:02;100570.84;;;14.57;65.19
61906;BME280;47863;55.766;37.672;2023-05-21T05:39:28;100559.22;;;14.64;64.88
61906;BME280;47863;55.766;37.672;2023-05-21T05:41:54;100554.31;;;14.76;64.80
61906;BME280;47863;55.766;37.672;2023-05-21T05:44:19;100578.41;;;15.11;64.30
61906;BME280;47863;55.766;37.672;2023-05-21T05:46:45;100551.91;;;15.14;64.29
61906;BME280;47863;55.766;37.672;2023-05-21T05:49:11;100567.53;;;15.35;63.95
61906;BME280;47863;55.766;37.672;2023-05-21T05:51:38;100574.94;;;15.41;63.88
61906;BME280;47863;55.766;37.672;2023-05-21T05:54:03;100571.94;;;15.28;64.31
61906;BME280;47863;55.766;37.672;2023-05-21T05:56:29;100581.22;;;15.25;64.08
61906;BME280;47863;55.766;37.672;2023-05-21T05:58:55;100562.22;;;15.11;64.47
61906;BME280;47863;55.766;37.672;2023-05-21T06:01:20;100572.16;;;15.10;64.10
61906;BME280;47863;55.766;37.672;2023-05-21T06:03:49;100580.06;;;15.12;64.26
61906;BME280;47863;55.766;37.672;2023-05-21T06:06:15;100566.25;;;14.98;64.20
61906;BME280;47863;55.766;37.672;2023-05-21T06:08:41;100582.78;;;15.12;64.03
61906;BME280;47863;55.766;37.672;2023-05-21T06:11:07;100578.03;;;15.22;63.90
61906;BME280;47863;55.766;37.672;2023-05-21T06:13:34;100585.59;;;15.35;63.62
61906;BME280;47863;55.766;37.672;2023-05-21T06:15:59;100574.06;;;15.49;63.01
61906;BME280;47863;55.766;37.672;2023-05-21T06:18:25;100587.00;;;15.62;62.62
61906;BME280;47863;55.766;37.672;2023-05-21T06:20:51;100569.13;;;15.61;62.50
61906;BME280;47863;55.766;37.672;2023-05-21T06:23:16;100572.63;;;15.70;62.37
61906;BME280;47863;55.766;37.672;2023-05-21T06:25:42;100576.59;;;15.98;62.02
61906;BME280;47863;55.766;37.672;2023-05-21T06:28:08;100583.78;;;16.37;61.45
61906;BME280;47863;55.766;37.672;2023-05-21T06:30:33;100574.03;;;16.97;60.55
61906;BME280;47863;55.766;37.672;2023-05-21T06:32:59;100568.00;;;17.55;59.92
61906;BME280;47863;55.766;37.672;2023-05-21T06:35:25;100572.16;;;18.02;59.21
61906;BME280;47863;55.766;37.672;2023-05-21T06:37:50;100577.09;;;18.13;59.00
61906;BME280;47863;55.766;37.672;2023-05-21T06:40:16;100579.16;;;18.11;58.90
61906;BME280;47863;55.766;37.672;2023-05-21T06:42:42;100572.69;;;18.12;58.62
61906;BME280;47863;55.766;37.672;2023-05-21T06:45:07;100569.16;;;18.55;58.11
61906;BME280;47863;55.766;37.672;2023-05-21T06:47:33;100570.78;;;19.27;56.77
61906;BME280;47863;55.766;37.672;2023-05-21T06:49:59;100573.63;;;19.82;56.12
61906;BME280;47863;55.766;37.672;2023-05-21T06:52:24;100569.56;;;20.19;55.58
61906;BME280;47863;55.766;37.672;2023-05-21T06:54:51;100555.28;;;19.97;55.52
61906;BME280;47863;55.766;37.672;2023-05-21T06:57:17;100561.63;;;19.63;56.07
61906;BME280;47863;55.766;37.672;2023-05-21T06:59:42;100582.34;;;19.36;56.13
61906;BME280;47863;55.766;37.672;2023-05-21T07:02:08;100561.25;;;19.38;55.67
61906;BME280;47863;55.766;37.672;2023-05-21T07:04:34;100577.69;;;19.99;54.98
61906;BME280;47863;55.766;37.672;2023-05-21T07:07:00;100569.81;;;20.25;53.92
61906;BME280;47863;55.766;37.672;2023-05-21T07:09:29;100572.75;;;20.43;53.19
61906;BME280;47863;55.766;37.672;2023-05-21T07:11:54;100576.94;;;21.59;51.87
61906;BME280;47863;55.766;37.672;2023-05-21T07:14:20;100572.13;;;24.01;48.72
61906;BME280;47863;55.766;37.672;2023-05-21T07:16:46;100575.16;;;26.35;45.85
61906;BME280;47863;55.766;37.672;2023-05-21T07:19:11;100582.69;;;28.57;43.82
61906;BME280;47863;55.766;37.672;2023-05-21T07:21:37;100571.59;;;30.37;41.47
61906;BME280;47863;55.766;37.672;2023-05-21T07:24:02;100576.03;;;31.10;40.76
61906;BME280;47863;55.766;37.672;2023-05-21T07:26:28;100575.97;;;31.41;40.54
61906;BME280;47863;55.766;37.672;2023-05-21T07:28:54;100564.06;;;31.40;38.80
61906;BME280;47863;55.766;37.672;2023-05-21T07:31:19;100555.53;;;32.47;36.88
61906;BME280;47863;55.766;37.672;2023-05-21T07:33:45;100574.16;;;33.63;36.05
61906;BME280;47863;55.766;37.672;2023-05-21T07:36:11;100575.03;;;34.02;35.99
61906;BME280;47863;55.766;37.672;2023-05-21T07:38:36;100581.31;;;34.83;34.77
61906;BME280;47863;55.766;37.672;2023-05-21T07:41:02;100588.38;;;34.94;33.89
61906;BME280;47863;55.766;37.672;2023-05-21T07:43:27;100587.06;;;33.73;34.21
61906;BME280;47863;55.766;37.672;2023-05-21T07:45:53;100569.69;;;32.45;35.05
61906;BME280;47863;55.766;37.672;2023-05-21T07:48:19;100579.06;;;31.14;35.48
61906;BME280;47863;55.766;37.672;2023-05-21T07:50:44;100578.25;;;31.99;34.38
61906;BME280;47863;55.766;37.672;2023-05-21T07:53:14;100572.66;;;33.47;32.53
61906;BME280;47863;55.766;37.672;2023-05-21T07:55:40;100573.00;;;35.44;29.99
61906;BME280;47863;55.766;37.672;2023-05-21T07:58:17;100579.16;;;35.96;29.40
61906;BME280;47863;55.766;37.672;2023-05-21T08:00:45;100573.81;;;35.44;29.69
61906;BME280;47863;55.766;37.672;2023-05-21T08:03:15;100575.28;;;34.05;26.48
61906;BME280;47863;55.766;37.672;2023-05-21T08:05:44;100572.09;;;32.17;28.51
61906;BME280;47863;55.766;37.672;2023-05-21T08:08:19;100572.16;;;30.44;32.21
61906;BME280;47863;55.766;37.672;2023-05-21T08:10:46;100566.22;;;28.67;33.50
61906;BME280;47863;55.766;37.672;2023-05-21T08:13:13;100574.66;;;27.79;34.04
61906;BME280;47863;55.766;37.672;2023-05-21T08:15:39;100570.38;;;26.93;34.54
61906;BME280;47863;55.766;37.672;2023-05-21T08:18:05;100563.28;;;27.14;34.07
61906;BME280;47863;55.766;37.672;2023-05-21T08:20:31;100575.59;;;28.39;32.34
61906;BME280;47863;55.766;37.672;2023-05-21T08:23:00;100576.28;;;28.51;31.85
61906;BME280;47863;55.766;37.672;2023-05-21T08:25:26;100576.31;;;28.29;32.17
61906;BME280;47863;55.766;37.672;2023-05-21T08:27:52;100573.63;;;28.07;31.89
61906;BME280;47863;55.766;37.672;2023-05-21T08:30:17;100566.06;;;29.64;29.91
61906;BME280;47863;55.766;37.672;2023-05-21T08:32:43;100572.81;;;31.84;27.97
61906;BME280;47863;55.766;37.672;2023-05-21T08:35:09;100550.31;;;31.95;28.27
61906;BME280;47863;55.766;37.672;2023-05-21T08:37:34;100576.88;;;31.96;28.43
61906;BME280;47863;55.766;37.672;2023-05-21T08:40:01;100571.50;;;31.60;28.00
61906;BME280;47863;55.766;37.672;2023-05-21T08:42:43;100554.91;;;31.55;24.95
61906;BME280;47863;55.766;37.672;2023-05-21T08:45:11;100575.47;;;30.52;28.29
61906;BME280;47863;55.766;37.672;2023-05-21T08:47:43;100561.84;;;31.48;26.89
61906;BME280;47863;55.766;37.672;2023-05-21T08:50:11;100570.25;;;33.64;25.19
61906;BME280;47863;55.766;37.672;2023-05-21T08:52:37;100565.91;;;35.05;24.24
61906;BME280;47863;55.766;37.672;2023-05-21T08:55:03;100548.47;;;34.33;24.58
61906;BME280;47863;55.766;37.672;2023-05-21T08:57:30;100566.53;;;34.50;23.86
61906;BME280;47863;55.766;37.672;2023-05-21T09:00:00;100567.47;;;34.07;23.96
61906;BME280;47863;55.766;37.672;2023-05-21T09:02:32;100563.75;;;34.50;23.00
61906;BME280;47863;55.766;37.672;2023-05-21T09:04:59;100570.41;;;33.73;23.93
61906;BME280;47863;55.766;37.672;2023-05-21T09:07:35;100579.53;;;33.25;23.48
61906;BME280;47863;55.766;37.672;2023-05-21T09:10:05;100577.22;;;32.74;24.13
61906;BME280;47863;55.766;37.672;2023-05-21T09:12:34;100569.44;;;33.10;23.49
61906;BME280;47863;55.766;37.672;2023-05-21T09:15:00;100560.28;;;34.77;22.43
61906;BME280;47863;55.766;37.672;2023-05-21T09:17:26;100565.09;;;36.51;20.82
61906;BME280;47863;55.766;37.672;2023-05-21T09:22:35;100567.31;;;38.06;19.97
61906;BME280;47863;55.766;37.672;2023-05-21T09:25:05;100574.81;;;36.18;21.14
61906;BME280;47863;55.766;37.672;2023-05-21T09:27:32;100556.69;;;33.57;24.03
61906;BME280;47863;55.766;37.672;2023-05-21T09:29:58;100570.78;;;31.03;24.74
61906;BME280;47863;55.766;37.672;2023-05-21T09:32:24;100576.66;;;29.82;25.23
61906;BME280;47863;55.766;37.672;2023-05-21T09:34:50;100581.50;;;31.36;23.84
61906;BME280;47863;55.766;37.672;2023-05-21T09:37:15;100567.03;;;32.69;22.80
61906;BME280;47863;55.766;37.672;2023-05-21T09:39:41;100580.50;;;33.88;21.51
61906;BME280;47863;55.766;37.672;2023-05-21T09:42:07;100575.63;;;35.07;20.92
61906;BME280;47863;55.766;37.672;2023-05-21T09:44:34;100583.88;;;36.82;19.49
61906;BME280;47863;55.766;37.672;2023-05-21T09:47:00;100575.97;;;37.78;19.01
61906;BME280;47863;55.766;37.672;2023-05-21T09:49:26;100586.88;;;38.41;18.04
61906;BME280;47863;55.766;37.672;2023-05-21T09:51:56;100572.66;;;39.07;17.54
61906;BME280;47863;55.766;37.672;2023-05-21T09:54:23;100575.69;;;40.00;17.17
61906;BME280;47863;55.766;37.672;2023-05-21T09:56:50;100574.13;;;40.11;17.04
61906;BME280;47863;55.766;37.672;2023-05-21T09:59:18;100567.44;;;37.92;18.21
61906;BME280;47863;55.766;37.672;2023-05-21T10:01:45;100547.78;;;36.04;18.94
61906;BME280;47863;55.766;37.672;2023-05-21T10:04:11;100567.84;;;35.37;19.18
61906;BME280;47863;55.766;37.672;2023-05-21T10:06:41;100566.47;;;35.90;18.26
61906;BME280;47863;55.766;37.672;2023-05-21T10:09:10;100567.97;;;35.73;18.27
61906;BME280;47863;55.766;37.672;2023-05-21T10:11:36;100558.16;;;34.88;19.10
61906;BME280;47863;55.766;37.672;2023-05-21T10:14:06;100570.38;;;35.06;18.46
61906;BME280;47863;55.766;37.672;2023-05-21T10:16:34;100576.25;;;33.47;19.54
61906;BME280;47863;55.766;37.672;2023-05-21T10:19:01;100567.94;;;31.50;20.95
61906;BME280;47863;55.766;37.672;2023-05-21T10:21:27;100573.09;;;29.82;22.18
61906;BME280;47863;55.766;37.672;2023-05-21T10:23:54;100569.84;;;28.67;23.18
61906;BME280;47863;55.766;37.672;2023-05-21T10:26:22;100569.09;;;28.50;23.13
61906;BME280;47863;55.766;37.672;2023-05-21T10:28:50;100562.19;;;27.93;23.26
61906;BME280;47863;55.766;37.672;2023-05-21T10:31:17;100553.06;;;27.09;23.78
61906;BME280;47863;55.766;37.672;2023-05-21T10:33:42;100559.56;;;26.24;24.35
61906;BME280;47863;55.766;37.672;2023-05-21T10:36:08;100552.69;;;26.09;24.77
61906;BME280;47863;55.766;37.672;2023-05-21T10:38:35;100556.50;;;26.08;24.40
61906;BME280;47863;55.766;37.672;2023-05-21T10:41:02;100545.44;;;26.49;23.94
61906;BME280;47863;55.766;37.672;2023-05-21T10:49:44;100559.41;;;24.79;25.08
61906;BME280;47863;55.766;37.672;2023-05-21T10:54:56;100569.09;;;23.90;26.26
61906;BME280;47863;55.766;37.672;2023-05-21T10:57:37;100550.25;;;23.82;26.26
61906;BME280;47863;55.766;37.672;2023-05-21T11:00:10;100560.88;;;23.90;26.27
61906;BME280;47863;55.766;37.672;2023-05-21T11:02:37;100563.47;;;23.85;26.77
61906;BME280;47863;55.766;37.672;2023-05-21T11:05:03;100554.66;;;24.44;26.17
61906;BME280;47863;55.766;37.672;2023-05-21T11:07:50;100564.19;;;25.95;25.57
61906;BME280;47863;55.766;37.672;2023-05-21T11:10:37;100567.88;;;27.86;24.35
61906;BME280;47863;55.766;37.672;2023-05-21T11:13:12;100547.16;;;29.35;22.87
61906;BME280;47863;55.766;37.672;2023-05-21T11:21:10;100569.66;;;29.12;22.74
61906;BME280;47863;55.766;37.672;2023-05-21T11:23:56;100563.84;;;28.21;23.38
61906;BME280;47863;55.766;37.672;2023-05-21T11:26:25;100565.44;;;27.29;24.07
61906;BME280;47863;55.766;37.672;2023-05-21T11:31:29;100564.31;;;25.88;25.46
61906;BME280;47863;55.766;37.672;2023-05-21T11:34:18;100555.47;;;25.33;25.85
61906;BME280;47863;55.766;37.672;2023-05-21T11:36:48;100562.63;;;24.87;26.21
61906;BME280;47863;55.766;37.672;2023-05-21T11:39:18;100568.69;;;24.35;26.71
61906;BME280;47863;55.766;37.672;2023-05-21T11:41:58;100563.78;;;23.95;27.26
61906;BME280;47863;55.766;37.672;2023-05-21T11:44:37;100562.72;;;23.78;27.11
61906;BME280;47863;55.766;37.672;2023-05-21T11:47:04;100567.34;;;23.59;26.91
61906;BME280;47863;55.766;37.672;2023-05-21T11:49:31;100550.25;;;23.27;27.13
61906;BME280;47863;55.766;37.672;2023-05-21T11:52:00;100566.94;;;22.93;27.55
61906;BME280;47863;55.766;37.672;2023-05-21T11:54:27;100565.66;;;23.21;27.38
61906;BME280;47863;55.766;37.672;2023-05-21T11:56:53;100574.28;;;24.41;26.73
61906;BME280;47863;55.766;37.672;2023-05-21T11:59:19;100560.38;;;25.31;25.56
61906;BME280;47863;55.766;37.672;2023-05-21T12:01:45;100570.97;;;26.04;24.81
61906;BME280;47863;55.766;37.672;2023-05-21T12:04:10;100569.13;;;27.01;24.08
61906;BME280;47863;55.766;37.672;2023-05-21T12:06:41;100572.50;;;28.08;23.46
61906;BME280;47863;55.766;37.672;2023-05-21T12:09:10;100571.94;;;28.87;23.18
61906;BME280;47863;55.766;37.672;2023-05-21T12:11:42;100573.28;;;28.85;23.32
61906;BME280;47863;55.766;37.672;2023-05-21T12:14:11;100561.81;;;28.39;23.88
61906;BME280;47863;55.766;37.672;2023-05-21T12:16:38;100569.94;;;28.23;23.96
61906;BME280;47863;55.766;37.672;2023-05-21T12:19:05;100574.63;;;27.57;24.68
61906;BME280;47863;55.766;37.672;2023-05-21T12:21:31;100565.91;;;26.41;25.76
61906;BME280;47863;55.766;37.672;2023-05-21T12:23:57;100584.44;;;25.18;26.82
61906;BME280;47863;55.766;37.672;2023-05-21T12:26:24;100578.34;;;24.08;28.05
61906;BME280;47863;55.766;37.672;2023-05-21T12:28:56;100571.72;;;23.23;28.62
61906;BME280;47863;55.766;37.672;2023-05-21T12:31:22;100585.09;;;22.56;29.61
61906;BME280;47863;55.766;37.672;2023-05-21T12:33:49;100582.94;;;21.81;30.50
61906;BME280;47863;55.766;37.672;2023-05-21T12:36:29;100578.03;;;21.25;31.43
61906;BME280;47863;55.766;37.672;2023-05-21T12:38:56;100585.81;;;20.88;31.53
61906;BME280;47863;55.766;37.672;2023-05-21T12:41:22;100566.91;;;20.53;31.47
61906;BME280;47863;55.766;37.672;2023-05-21T12:43:49;100580.28;;;20.48;31.88
61906;BME280;47863;55.766;37.672;2023-05-21T12:46:15;100592.19;;;20.27;32.39
61906;BME280;47863;55.766;37.672;2023-05-21T12:48:52;100584.81;;;20.00;32.52
61906;BME280;47863;55.766;37.672;2023-05-21T12:51:19;100585.81;;;19.93;32.63
61906;BME280;47863;55.766;37.672;2023-05-21T12:53:45;100550.63;;;19.78;32.47
61906;BME280;47863;55.766;37.672;2023-05-21T12:56:12;100570.06;;;19.81;32.65
61906;BME280;47863;55.766;37.672;2023-05-21T12:58:41;100573.16;;;19.72;33.22
61906;BME280;47863;55.766;37.672;2023-05-21T13:01:10;100549.97;;;19.41;33.29
61906;BME280;47863;55.766;37.672;2023-05-21T13:03:37;100568.41;;;19.46;32.92
61906;BME280;47863;55.766;37.672;2023-05-21T13:06:07;100566.28;;;19.41;33.02